Queenstown, MD (21658)

3:19 AM EST on February 08, 2016 (GMT -0500)
Governor Grayson | | Change Station
CLOSE
Current Station
Personal Weather Station
Location: Queenstown, MD
Elevation: 23 ft
Nearby Weather Stations

Elev 23 ft 38.96 °N, 76.17 °W | Updated 13 minutes ago

Partly Cloudy
Partly Cloudy
36.7 °F
Feels Like 32 °F
N
6.3
Wind Variable Wind from NNW

Today
High -- | Low -- °F
--% Chance of Precip.
Yesterday
High -- | Low -- °F
Precip. -- in
Pressure 29.74 in
Visibility 10.0 miles
Clouds Clear
Windchill 32 °F
Dew Point 26 °F
Humidity 66%
Rainfall 0.00 in
Snow Depth Not available.
7:04 AM 5:33 PM
Waning Crescent, 0% visible
METAR KESN 080808Z AUTO 02008G14KT 10SM CLR 03/M03 A2974 RMK AO2 T00301034
Pressure 29.74 in
Visibility 10.0 miles
Clouds Clear
Windchill 32 °F
Dew Point 26 °F
Humidity 66%
Rainfall 0.00 in
Snow Depth Not available.
7:04 AM 5:33 PM
Waning Crescent, 0% visible
METAR KESN 080808Z AUTO 02008G14KT 10SM CLR 03/M03 A2974 RMK AO2 T00301034

10-Day Weather Forecast

Almanac

Astronomy

Feb. 08, 2016 Rise Set
Actual Time
Civil Twilight
Nautical Twilight
Astronomical Twilight
Moon
Length of Visible Light
Length of Day
Tomorrow will be .
, % of the Moon is Illuminated

Today's Extremes

State Highs State Lows

Community

WunderPhotos

Upload Photos

1,891,412 photos uploaded!

WunderBlog® & News

Nearby

Air Quality

  Air Quality AQ Index Pollutant
Not available.

Snow Depth

Station Depth Elevation

Earthquake Activity

City Distance Mag. Time & Date
Minimum magnitude displayed is 2.5.

Coastal Water Temperatures

Place Temperature

Stations

Nearby Weather Stations

Station Location Temp. Windchill Dew Point Humidity Wind Precip. Elev Updated Type
                   

Watches & Warnings

There are currently no watches in effect.